EYKA/KUN METAR and TAF weather

Enter ICAO airport designator
Station Type Date Time Source
EYKA METAR 2019/12/10 03:20 UTC NOAA

EYKA 100320Z 19004KT 150V250 5000 BR NSC 03/03 Q1005


Station Type Date Time Source
EYKA Decoded METAR 2019/12/10 03:20 UTC NOAA

Kaunas, Lithuania (EYKA) 54-54N 023-55-12E
Dec 09, 2019 - 10:20 PM EST / 2019.12.10 0320 UTC
Wind: from the S (190 degrees) at 5 MPH (4 KT) (direction variable):0
Visibility: 3 mile(s):0
Weather: mist
Temperature: 37 F (3 C)
Dew Point: 37 F (3 C)
Relative Humidity: 100%
Pressure (altimeter): 29.68 in. Hg (1005 hPa)
ob: EYKA 100320Z 19004KT 150V250 5000 BR NSC 03/03 Q1005
cycle: 3

Station Type Date Time Source
EYKA TAF 2019/12/09 18:27 UTC NOAA

TAF TAF EYKA 091703Z 0918/1018 21010KT 9000 SCT015
TEMPO 0922/1006 BKN005
BECMG 1006/1008 SCT012CB BKN018

Example: see airport list